Time;durP1;ratioP1;P1;durP2;ratioP2;P2;SDS_P1;SDS_P2;PMS_P1;PMS_P2;Temp;Humidity;BMP_temperature;BMP_pressure;BME280_temperature;BME280_humidity;BME280_pressure;Samples;Min_cycle;Max_cycle;Signal;HPM_P1;HPM_P2
2022/09/25 00:01:33;;;;;;;10.75;3.30;;;;;;;;;;5032887;28;20502;-77
2022/09/25 00:03:59;;;;;;;11.18;3.42;;;;;;;;;;5032567;28;20045;-77
2022/09/25 00:06:26;;;;;;;18.20;4.40;;;;;;;;;;5039074;28;20091;-77
2022/09/25 00:08:53;;;;;;;15.50;4.95;;;;;;;;;;5066714;28;20037;-76
2022/09/25 00:11:24;;;;;;;14.68;4.78;;;;;;;;;;5052218;28;20095;-77
2022/09/25 00:13:50;;;;;;;11.88;3.78;;;;;;;;;;5053124;28;20472;-77
2022/09/25 00:16:18;;;;;;;6.28;2.30;;;;;;;;;;5052244;28;20041;-77
2022/09/25 00:21:30;;;;;;;10.02;2.85;;;;;;;;;;5032577;28;20053;-77
2022/09/25 00:23:59;;;;;;;6.40;2.20;;;;;;;;;;5042216;28;20056;-77
2022/09/25 00:26:27;;;;;;;6.93;2.03;;;;;;;;;;5037343;28;20051;-77
2022/09/25 00:28:53;;;;;;;3.50;1.90;;;;;;;;;;5033572;28;20129;-77
2022/09/25 00:31:23;;;;;;;8.70;2.60;;;;;;;;;;5034008;28;20041;-76
2022/09/25 00:33:57;;;;;;;4.45;2.13;;;;;;;;;;5032478;28;20087;-76
2022/09/25 00:36:23;;;;;;;11.07;3.40;;;;;;;;;;5035397;28;20045;-76
2022/09/25 00:38:49;;;;;;;11.63;4.25;;;;;;;;;;5042339;28;20041;-77
2022/09/25 00:41:19;;;;;;;14.93;4.50;;;;;;;;;;5033490;28;20045;-77
2022/09/25 00:43:49;;;;;;;12.60;4.22;;;;;;;;;;5049124;28;20041;-77
2022/09/25 00:46:33;;;;;;;12.40;4.18;;;;;;;;;;5053321;28;20045;-77
2022/09/25 00:49:05;;;;;;;12.88;3.72;;;;;;;;;;5053001;28;20485;-77
2022/09/25 00:51:52;;;;;;;7.47;2.95;;;;;;;;;;5055143;28;20104;-77
2022/09/25 00:54:18;;;;;;;;;;;;;;;;;;5054809;28;20123;-77
2022/09/25 00:56:45;;;;;;;11.52;3.78;;;;;;;;;;5051791;28;20000;-77
2022/09/25 00:59:14;;;;;;;15.27;4.15;;;;;;;;;;5055803;28;20079;-77
2022/09/25 01:01:40;;;;;;;13.10;4.18;;;;;;;;;;5046387;28;20045;-77
2022/09/25 01:04:06;;;;;;;12.40;4.70;;;;;;;;;;5037093;28;20042;-77
2022/09/25 01:06:33;;;;;;;10.82;3.95;;;;;;;;;;5038903;28;20466;-77
2022/09/25 01:08:59;;;;;;;8.52;3.20;;;;;;;;;;5042031;28;20064;-76
2022/09/25 01:11:25;;;;;;;6.70;2.30;;;;;;;;;;5039558;28;20088;-76
2022/09/25 01:13:53;;;;;;;5.82;2.15;;;;;;;;;;5051816;28;20077;-77
2022/09/25 01:16:26;;;;;;;4.45;1.92;;;;;;;;;;5038295;28;20041;-77
2022/09/25 01:18:58;;;;;;;5.57;2.60;;;;;;;;;;5036931;28;20049;-77
2022/09/25 01:21:30;;;;;;;12.55;3.05;;;;;;;;;;5036958;28;20124;-77
2022/09/25 01:23:56;;;;;;;11.65;3.70;;;;;;;;;;5045475;28;20048;-77
2022/09/25 01:26:37;;;;;;;13.25;3.53;;;;;;;;;;5036673;28;20045;-77
2022/09/25 01:29:10;;;;;;;8.10;2.80;;;;;;;;;;5052895;28;20554;-77
2022/09/25 01:31:52;;;;;;;8.77;3.58;;;;;;;;;;5056556;28;20048;-77
2022/09/25 01:34:26;;;;;;;11.27;3.33;;;;;;;;;;5038023;28;20041;-77
2022/09/25 01:36:58;;;;;;;5.65;2.00;;;;;;;;;;5035574;28;20151;-77
2022/09/25 01:39:31;;;;;;;6.40;2.10;;;;;;;;;;5036941;28;20076;-77
2022/09/25 01:42:05;;;;;;;7.45;2.17;;;;;;;;;;5036665;28;20042;-76
2022/09/25 01:44:34;;;;;;;8.32;1.88;;;;;;;;;;5046770;28;20389;-77
2022/09/25 01:47:07;;;;;;;6.70;2.05;;;;;;;;;;5038873;28;20120;-77
2022/09/25 01:49:35;;;;;;;5.50;1.95;;;;;;;;;;5056176;28;20037;-76
2022/09/25 01:52:04;;;;;;;6.22;2.10;;;;;;;;;;5055751;28;20061;-77
2022/09/25 01:54:33;;;;;;;5.18;1.98;;;;;;;;;;5052220;28;20049;-77
2022/09/25 01:57:06;;;;;;;4.63;1.58;;;;;;;;;;5035115;28;20049;-77
2022/09/25 01:59:39;;;;;;;3.83;2.05;;;;;;;;;;5035492;28;20056;-77
2022/09/25 02:02:07;;;;;;;5.75;2.00;;;;;;;;;;5038182;28;20041;-77
2022/09/25 02:04:38;;;;;;;5.03;1.95;;;;;;;;;;5057858;28;20077;-77
2022/09/25 02:07:06;;;;;;;3.90;1.70;;;;;;;;;;5037370;28;20049;-77
2022/09/25 02:09:39;;;;;;;2.85;1.80;;;;;;;;;;5040497;28;20048;-77
2022/09/25 02:12:08;;;;;;;6.53;2.40;;;;;;;;;;5049656;28;20069;-76
2022/09/25 02:14:42;;;;;;;6.28;2.47;;;;;;;;;;5054081;28;20056;-76
2022/09/25 02:17:11;;;;;;;9.15;2.28;;;;;;;;;;5053275;28;20044;-76
2022/09/25 02:22:24;;;;;;;6.38;2.80;;;;;;;;;;5035366;28;20485;-77
2022/09/25 02:24:59;;;;;;;7.35;2.85;;;;;;;;;;5055164;28;20115;-76
2022/09/25 02:27:27;;;;;;;5.43;2.00;;;;;;;;;;5036628;28;20482;-76
2022/09/25 02:29:54;;;;;;;5.90;2.20;;;;;;;;;;5035577;28;20418;-77
2022/09/25 02:32:26;;;;;;;6.13;2.63;;;;;;;;;;5035050;28;20496;-76
2022/09/25 02:34:52;;;;;;;14.20;3.40;;;;;;;;;;5035708;28;20064;-76
2022/09/25 02:37:19;;;;;;;12.00;3.30;;;;;;;;;;5033836;28;20375;-76
2022/09/25 02:39:49;;;;;;;10.05;3.10;;;;;;;;;;5037872;28;21819;-77
2022/09/25 02:42:28;;;;;;;9.73;3.10;;;;;;;;;;5036646;28;20478;-77
2022/09/25 02:44:57;;;;;;;5.97;2.50;;;;;;;;;;5039765;28;20057;-76
2022/09/25 02:47:23;;;;;;;10.80;3.13;;;;;;;;;;5041891;28;20448;-77
2022/09/25 02:49:54;;;;;;;12.20;3.40;;;;;;;;;;5052326;28;20041;-77
2022/09/25 02:52:32;;;;;;;8.68;3.20;;;;;;;;;;5055282;28;20052;-77
2022/09/25 02:55:28;;;;;;;6.07;2.00;;;;;;;;;;5042045;28;20041;-76
2022/09/25 02:57:57;;;;;;;7.20;1.90;;;;;;;;;;5022843;28;20062;-76
2022/09/25 03:00:23;;;;;;;4.80;1.90;;;;;;;;;;5039636;28;20042;-77
2022/09/25 03:02:53;;;;;;;8.63;2.67;;;;;;;;;;5034927;28;20132;-76
2022/09/25 03:05:20;;;;;;;5.28;2.45;;;;;;;;;;5034785;28;20057;-77
2022/09/25 03:10:32;;;;;;;2.60;1.50;;;;;;;;;;5050199;28;20502;-77
2022/09/25 03:13:13;;;;;;;3.17;1.40;;;;;;;;;;5053343;28;20091;-76
2022/09/25 03:15:40;;;;;;;3.30;1.40;;;;;;;;;;5054279;28;20090;-76
2022/09/25 03:18:07;;;;;;;3.92;1.40;;;;;;;;;;5054612;28;20068;-78
2022/09/25 03:20:33;;;;;;;4.25;1.42;;;;;;;;;;5047308;28;20124;-79
2022/09/25 03:22:59;;;;;;;6.38;1.85;;;;;;;;;;5044544;28;20036;-79
2022/09/25 03:25:25;;;;;;;3.42;2.30;;;;;;;;;;5037694;28;20053;-78
2022/09/25 03:27:51;;;;;;;2.22;1.40;;;;;;;;;;5051810;28;20041;-78
2022/09/25 03:30:17;;;;;;;8.13;1.75;;;;;;;;;;5054254;28;20041;-78
2022/09/25 03:32:43;;;;;;;6.05;1.77;;;;;;;;;;5054193;28;20107;-78
2022/09/25 03:35:09;;;;;;;3.60;1.80;;;;;;;;;;5052771;28;20091;-77
2022/09/25 03:37:35;;;;;;;4.15;1.90;;;;;;;;;;5052298;28;20462;-77
2022/09/25 03:40:02;;;;;;;5.18;1.85;;;;;;;;;;5033129;28;20430;-77
2022/09/25 03:42:28;;;;;;;3.92;2.00;;;;;;;;;;5048366;28;20053;-77
2022/09/25 03:44:54;;;;;;;4.20;2.00;;;;;;;;;;5035516;28;20053;-77
2022/09/25 03:47:20;;;;;;;5.88;2.30;;;;;;;;;;5034231;28;20046;-77
2022/09/25 03:49:46;;;;;;;4.68;2.40;;;;;;;;;;5048988;28;20410;-77
2022/09/25 03:52:13;;;;;;;7.28;2.20;;;;;;;;;;5041583;28;20121;-77
2022/09/25 03:54:39;;;;;;;7.15;2.38;;;;;;;;;;5041787;28;20046;-77
2022/09/25 03:57:06;;;;;;;5.55;2.30;;;;;;;;;;5033717;28;20041;-77
2022/09/25 03:59:32;;;;;;;3.58;2.10;;;;;;;;;;5034682;28;20041;-77
2022/09/25 04:01:58;;;;;;;6.15;2.10;;;;;;;;;;5034425;28;20041;-77
2022/09/25 04:04:24;;;;;;;10.65;2.55;;;;;;;;;;5032292;28;20498;-77
2022/09/25 04:06:50;;;;;;;9.95;3.05;;;;;;;;;;5039618;28;20476;-77
2022/09/25 04:09:16;;;;;;;6.88;2.85;;;;;;;;;;5037487;28;20050;-77
2022/09/25 04:11:42;;;;;;;6.45;2.75;;;;;;;;;;5033907;28;20084;-77
2022/09/25 04:14:11;;;;;;;8.88;3.00;;;;;;;;;;5049600;28;20058;-78
2022/09/25 04:16:37;;;;;;;10.38;2.85;;;;;;;;;;5057327;28;20049;-78
2022/09/25 04:19:03;;;;;;;9.77;2.63;;;;;;;;;;5063700;28;20063;-79
2022/09/25 04:21:29;;;;;;;6.60;2.70;;;;;;;;;;5053897;28;20054;-78
2022/09/25 04:26:40;;;;;;;7.95;2.55;;;;;;;;;;5033766;28;20053;-77
2022/09/25 04:29:06;;;;;;;7.43;2.88;;;;;;;;;;5033837;28;20175;-77
2022/09/25 04:31:32;;;;;;;6.70;2.67;;;;;;;;;;5033368;28;20041;-78
2022/09/25 04:34:00;;;;;;;7.93;2.50;;;;;;;;;;5067487;28;20070;-79
2022/09/25 04:36:26;;;;;;;7.28;2.70;;;;;;;;;;5045142;28;20073;-79
2022/09/25 04:38:52;;;;;;;8.55;2.90;;;;;;;;;;5033380;28;20044;-79
2022/09/25 04:41:18;;;;;;;4.53;2.28;;;;;;;;;;5048754;28;20044;-78
2022/09/25 04:43:45;;;;;;;6.57;2.90;;;;;;;;;;5053227;28;20060;-78
2022/09/25 04:46:12;;;;;;;6.88;2.65;;;;;;;;;;5046884;28;20033;-78
2022/09/25 04:48:38;;;;;;;7.65;2.42;;;;;;;;;;5033510;28;20041;-78
2022/09/25 04:51:05;;;;;;;6.93;2.67;;;;;;;;;;5033368;28;20132;-78
2022/09/25 04:53:34;;;;;;;5.50;2.38;;;;;;;;;;5042245;28;20486;-78
2022/09/25 04:56:04;;;;;;;6.22;2.40;;;;;;;;;;5053032;28;20049;-78
2022/09/25 04:58:30;;;;;;;8.07;2.30;;;;;;;;;;5052030;28;20533;-78
2022/09/25 05:01:00;;;;;;;7.80;2.45;;;;;;;;;;5050660;28;20381;-78
2022/09/25 05:03:28;;;;;;;5.28;2.50;;;;;;;;;;5053217;28;20471;-77
2022/09/25 05:05:54;;;;;;;7.68;2.47;;;;;;;;;;5044842;28;20053;-77
2022/09/25 05:08:22;;;;;;;5.13;2.22;;;;;;;;;;5032999;28;20124;-77
2022/09/25 05:10:48;;;;;;;8.57;3.00;;;;;;;;;;5056859;28;20057;-77
2022/09/25 05:13:14;;;;;;;10.20;2.85;;;;;;;;;;5052768;28;20041;-77
2022/09/25 05:15:40;;;;;;;6.25;2.60;;;;;;;;;;5053152;28;20041;-77
2022/09/25 05:18:26;;;;;;;5.43;3.17;;;;;;;;;;5068055;28;20080;-77
2022/09/25 05:20:56;;;;;;;4.53;2.45;;;;;;;;;;5051481;28;20049;-77
2022/09/25 05:23:23;;;;;;;6.38;2.40;;;;;;;;;;5041350;28;20131;-77
2022/09/25 05:25:53;;;;;;;8.30;2.70;;;;;;;;;;5043505;28;20501;-77
2022/09/25 05:28:20;;;;;;;6.15;2.83;;;;;;;;;;5051900;28;20041;-77
2022/09/25 05:30:46;;;;;;;6.35;2.45;;;;;;;;;;5048014;28;20045;-76
2022/09/25 05:33:12;;;;;;;5.95;2.20;;;;;;;;;;5032536;28;20049;-77
2022/09/25 05:35:38;;;;;;;5.05;2.50;;;;;;;;;;5032729;28;20049;-77
2022/09/25 05:38:05;;;;;;;7.15;3.00;;;;;;;;;;5036331;28;20052;-77
2022/09/25 05:40:31;;;;;;;6.47;2.83;;;;;;;;;;5036121;28;20100;-77
2022/09/25 05:42:57;;;;;;;6.30;2.75;;;;;;;;;;5036394;28;20116;-77
2022/09/25 05:45:23;;;;;;;4.13;3.30;;;;;;;;;;5034977;28;20049;-77
2022/09/25 05:47:59;;;;;;;6.15;3.08;;;;;;;;;;5036255;28;20160;-76
2022/09/25 05:50:25;;;;;;;;;;;;;;;;;;5036536;28;20132;-77
2022/09/25 05:52:56;;;;;;;6.70;3.10;;;;;;;;;;5035692;28;19924;-77
2022/09/25 05:55:22;;;;;;;5.55;3.08;;;;;;;;;;5034963;28;20060;-76
2022/09/25 05:57:48;;;;;;;6.93;2.88;;;;;;;;;;5036158;28;20038;-76
2022/09/25 06:00:15;;;;;;;6.75;3.78;;;;;;;;;;5036034;28;20041;-77
2022/09/25 06:02:41;;;;;;;10.30;4.63;;;;;;;;;;5043575;28;20048;-78
2022/09/25 06:05:07;;;;;;;7.80;5.53;;;;;;;;;;5063010;28;20052;-77
2022/09/25 06:07:34;;;;;;;14.20;5.25;;;;;;;;;;5060087;28;20087;-75
2022/09/25 06:10:00;;;;;;;10.43;6.75;;;;;;;;;;5058342;28;20449;-77
2022/09/25 06:12:28;;;;;;;10.82;6.15;;;;;;;;;;5046471;28;20048;-76
2022/09/25 06:14:54;;;;;;;9.27;5.57;;;;;;;;;;5049489;28;20041;-76
2022/09/25 06:17:20;;;;;;;9.05;4.55;;;;;;;;;;5041595;28;20084;-79
2022/09/25 06:19:47;;;;;;;9.75;4.35;;;;;;;;;;5038048;28;20053;-78
2022/09/25 06:22:13;;;;;;;5.70;4.60;;;;;;;;;;5046067;28;20128;-76
2022/09/25 06:24:39;;;;;;;7.90;5.15;;;;;;;;;;5037982;28;20053;-76
2022/09/25 06:27:06;;;;;;;5.63;4.05;;;;;;;;;;5034215;28;20053;-76
2022/09/25 06:29:32;;;;;;;8.98;3.75;;;;;;;;;;5035899;28;20386;-76
2022/09/25 06:31:58;;;;;;;8.82;4.50;;;;;;;;;;5035886;28;20498;-76
2022/09/25 06:34:24;;;;;;;8.27;4.13;;;;;;;;;;5060807;28;20049;-77
2022/09/25 06:36:50;;;;;;;8.05;3.65;;;;;;;;;;5037706;28;20065;-77
2022/09/25 06:39:16;;;;;;;7.30;3.97;;;;;;;;;;5040358;28;20053;-76
2022/09/25 06:41:42;;;;;;;4.75;2.80;;;;;;;;;;5045234;28;20539;-76
2022/09/25 06:44:08;;;;;;;5.47;2.58;;;;;;;;;;5054176;28;20116;-76
2022/09/25 06:46:35;;;;;;;3.97;2.88;;;;;;;;;;5055141;28;20076;-76
2022/09/25 06:49:01;;;;;;;7.63;3.20;;;;;;;;;;5054328;28;20120;-76
2022/09/25 06:51:31;;;;;;;5.30;2.97;;;;;;;;;;5054546;28;20048;-76
2022/09/25 06:53:57;;;;;;;5.05;2.67;;;;;;;;;;5053608;28;20132;-76
2022/09/25 06:56:23;;;;;;;6.00;3.65;;;;;;;;;;5053084;28;20124;-76
2022/09/25 06:58:50;;;;;;;7.00;3.20;;;;;;;;;;5044144;28;20041;-76
2022/09/25 07:01:16;;;;;;;7.85;3.00;;;;;;;;;;5037477;28;20521;-77
2022/09/25 07:03:45;;;;;;;6.43;2.92;;;;;;;;;;5038328;28;20041;-77
2022/09/25 07:06:19;;;;;;;6.10;2.50;;;;;;;;;;5038834;28;20033;-77
2022/09/25 07:08:46;;;;;;;3.85;2.08;;;;;;;;;;5035331;28;20107;-77
2022/09/25 07:11:14;;;;;;;6.10;2.50;;;;;;;;;;5034243;28;20144;-77
2022/09/25 07:13:41;;;;;;;4.53;2.30;;;;;;;;;;5034493;28;20052;-77
2022/09/25 07:16:09;;;;;;;5.97;2.22;;;;;;;;;;5034647;28;20045;-77
2022/09/25 07:18:35;;;;;;;4.07;2.20;;;;;;;;;;5044852;28;20416;-77
2022/09/25 07:21:01;;;;;;;4.65;2.38;;;;;;;;;;5053500;28;20492;-77
2022/09/25 07:23:29;;;;;;;5.47;2.75;;;;;;;;;;5070274;28;20048;-77
2022/09/25 07:25:59;;;;;;;8.90;2.42;;;;;;;;;;5045614;28;20498;-77
2022/09/25 07:28:25;;;;;;;4.82;2.40;;;;;;;;;;5033124;28;20132;-77
2022/09/25 07:30:51;;;;;;;5.85;2.40;;;;;;;;;;5046305;28;20045;-76
2022/09/25 07:33:18;;;;;;;7.82;2.70;;;;;;;;;;5054377;28;20042;-76
2022/09/25 07:35:44;;;;;;;4.78;2.22;;;;;;;;;;5047895;28;20125;-75
2022/09/25 07:38:10;;;;;;;6.60;1.90;;;;;;;;;;5034471;28;20042;-75
2022/09/25 07:40:36;;;;;;;7.65;1.98;;;;;;;;;;5034388;28;20111;-75
2022/09/25 07:43:02;;;;;;;4.75;2.67;;;;;;;;;;5034239;28;20045;-76
2022/09/25 07:45:28;;;;;;;7.22;2.20;;;;;;;;;;5049399;28;20052;-76
2022/09/25 07:48:00;;;;;;;3.13;1.92;;;;;;;;;;5034374;28;20084;-76
2022/09/25 07:50:30;;;;;;;5.05;2.20;;;;;;;;;;5033345;28;20132;-76
2022/09/25 07:52:56;;;;;;;9.00;2.58;;;;;;;;;;5033717;28;20653;-76
2022/09/25 07:55:24;;;;;;;6.75;3.00;;;;;;;;;;5035302;28;20053;-77
2022/09/25 07:57:50;;;;;;;6.10;1.90;;;;;;;;;;5038626;28;20073;-77
2022/09/25 08:00:17;;;;;;;5.88;2.20;;;;;;;;;;5044563;28;20417;-77
2022/09/25 08:02:43;;;;;;;6.25;2.30;;;;;;;;;;5038031;28;20440;-76
2022/09/25 08:05:10;;;;;;;5.18;1.65;;;;;;;;;;5050265;28;20546;-75
2022/09/25 08:07:37;;;;;;;5.22;1.85;;;;;;;;;;5034097;28;20046;-76
2022/09/25 08:10:03;;;;;;;3.95;1.83;;;;;;;;;;5034032;28;20136;-76
2022/09/25 08:12:29;;;;;;;4.63;1.40;;;;;;;;;;5033741;28;20052;-76
2022/09/25 08:14:56;;;;;;;3.40;1.45;;;;;;;;;;5033796;28;20382;-76
2022/09/25 08:17:22;;;;;;;5.40;1.73;;;;;;;;;;5039603;28;20053;-77
2022/09/25 08:19:48;;;;;;;3.03;1.88;;;;;;;;;;5047623;28;20041;-76
2022/09/25 08:22:14;;;;;;;2.28;1.30;;;;;;;;;;5035733;28;20362;-77
2022/09/25 08:24:40;;;;;;;3.70;1.85;;;;;;;;;;5033592;28;20498;-78
2022/09/25 08:27:06;;;;;;;6.40;1.50;;;;;;;;;;5038633;28;20513;-77
2022/09/25 08:29:33;;;;;;;2.63;1.50;;;;;;;;;;5046123;28;20052;-77
2022/09/25 08:31:59;;;;;;;3.33;1.63;;;;;;;;;;5033157;28;20045;-77
2022/09/25 08:34:25;;;;;;;4.60;1.50;;;;;;;;;;5044100;28;20071;-77
2022/09/25 08:36:51;;;;;;;3.42;1.60;;;;;;;;;;5068854;28;20041;-77
2022/09/25 08:39:17;;;;;;;2.40;1.50;;;;;;;;;;5038045;28;20037;-77
2022/09/25 08:41:43;;;;;;;3.25;1.67;;;;;;;;;;5032359;28;20046;-77
2022/09/25 08:44:18;;;;;;;3.17;1.27;;;;;;;;;;5049915;28;20051;-77
2022/09/25 08:49:38;;;;;;;4.60;1.40;;;;;;;;;;5049259;28;20506;-77
2022/09/25 08:52:09;;;;;;;3.15;1.20;;;;;;;;;;5032548;28;20054;-77
2022/09/25 08:54:35;;;;;;;2.25;1.13;;;;;;;;;;5033866;28;20127;-77
2022/09/25 08:57:26;;;;;;;1.67;1.20;;;;;;;;;;5043514;28;20090;-77
2022/09/25 08:59:54;;;;;;;2.35;1.23;;;;;;;;;;5029300;28;20135;-77
2022/09/25 09:02:21;;;;;;;1.63;1.02;;;;;;;;;;5045350;28;20059;-77
2022/09/25 09:04:50;;;;;;;2.28;1.30;;;;;;;;;;4998928;28;20057;-77
2022/09/25 09:07:22;;;;;;;2.75;1.40;;;;;;;;;;5014403;28;20479;-77
2022/09/25 09:09:52;;;;;;;2.05;1.23;;;;;;;;;;5013794;28;20459;-77
2022/09/25 09:12:21;;;;;;;2.15;1.02;;;;;;;;;;5010146;28;20045;-76
2022/09/25 09:14:49;;;;;;;5.20;1.92;;;;;;;;;;5018976;28;20049;-77
2022/09/25 09:17:25;;;;;;;2.88;1.85;;;;;;;;;;5005522;28;20078;-77
2022/09/25 09:19:54;;;;;;;3.35;1.73;;;;;;;;;;5017105;28;20068;-77
2022/09/25 09:22:22;;;;;;;2.33;1.30;;;;;;;;;;5017422;28;20495;-77
2022/09/25 09:24:57;;;;;;;2.58;1.30;;;;;;;;;;4999568;28;20050;-77
2022/09/25 09:27:25;;;;;;;3.55;1.40;;;;;;;;;;5033866;28;20498;-77
2022/09/25 09:30:10;;;;;;;3.47;1.42;;;;;;;;;;5029770;28;20044;-77
2022/09/25 09:32:39;;;;;;;3.13;1.23;;;;;;;;;;5017083;28;20057;-77
2022/09/25 09:35:24;;;;;;;1.73;1.20;;;;;;;;;;5016868;28;20418;-76
2022/09/25 09:38:09;;;;;;;4.25;1.10;;;;;;;;;;5025712;28;20117;-77
2022/09/25 09:40:50;;;;;;;4.75;1.58;;;;;;;;;;5019029;28;20038;-77
2022/09/25 09:43:16;;;;;;;3.53;1.80;;;;;;;;;;5007498;28;20053;-77
2022/09/25 09:45:59;;;;;;;4.30;1.50;;;;;;;;;;5035143;28;20034;-78
2022/09/25 09:48:27;;;;;;;3.13;1.80;;;;;;;;;;5028063;28;20476;-78
2022/09/25 09:50:56;;;;;;;2.25;1.25;;;;;;;;;;5029803;28;20125;-78
2022/09/25 09:53:32;;;;;;;4.75;1.52;;;;;;;;;;5019504;28;20046;-81
2022/09/25 10:17:29;;;;;;;3.33;2.33;;;;;;;;;;5042300;28;20178;-74
2022/09/25 10:19:57;;;;;;;4.28;2.15;;;;;;;;;;5044055;28;20053;-75
2022/09/25 10:22:27;;;;;;;4.93;1.65;;;;;;;;;;5034766;28;20472;-75
2022/09/25 10:24:57;;;;;;;3.47;1.50;;;;;;;;;;5035971;28;20554;-75
2022/09/25 10:27:28;;;;;;;5.65;1.60;;;;;;;;;;5023650;28;20484;-74
2022/09/25 10:30:00;;;;;;;4.57;1.73;;;;;;;;;;5034205;28;20076;-75
2022/09/25 10:32:26;;;;;;;3.55;1.40;;;;;;;;;;5029268;28;20065;-75
2022/09/25 10:34:53;;;;;;;3.42;1.60;;;;;;;;;;5028236;28;20079;-75
2022/09/25 10:37:21;;;;;;;4.55;1.63;;;;;;;;;;5002032;28;20074;-75
2022/09/25 10:40:04;;;;;;;2.90;1.45;;;;;;;;;;5009138;28;20042;-76
2022/09/25 10:42:40;;;;;;;5.68;2.00;;;;;;;;;;5027704;28;20093;-75
2022/09/25 10:45:05;;;;;;;;;;;;;;;;;;5044286;28;20048;-75
2022/09/25 10:50:20;;;;;;;3.50;1.60;;;;;;;;;;5038593;28;20147;-74
2022/09/25 10:52:48;;;;;;;6.80;1.70;;;;;;;;;;5043720;28;20060;-74
2022/09/25 10:55:24;;;;;;;7.15;1.90;;;;;;;;;;5038274;28;20046;-75
2022/09/25 10:57:55;;;;;;;2.28;1.30;;;;;;;;;;5047782;28;20069;-76
2022/09/25 11:00:25;;;;;;;7.88;1.50;;;;;;;;;;5027366;28;20046;-75
2022/09/25 11:02:55;;;;;;;3.33;1.60;;;;;;;;;;5041407;28;20061;-74
2022/09/25 11:05:23;;;;;;;4.47;1.80;;;;;;;;;;5070057;27;20109;-74
2022/09/25 11:07:54;;;;;;;3.13;1.20;;;;;;;;;;5047595;28;20056;-76
2022/09/25 11:10:25;;;;;;;9.30;2.15;;;;;;;;;;5029645;28;20104;-74
2022/09/25 11:12:51;;;;;;;3.75;1.30;;;;;;;;;;5030809;28;20146;-74
2022/09/25 11:15:22;;;;;;;2.97;1.20;;;;;;;;;;5029084;28;20067;-74
2022/09/25 11:17:49;;;;;;;5.05;1.27;;;;;;;;;;5031971;28;20076;-74
2022/09/25 11:20:19;;;;;;;3.42;1.20;;;;;;;;;;5041166;28;20030;-75
2022/09/25 11:22:55;;;;;;;3.58;1.90;;;;;;;;;;5043841;28;20037;-76
2022/09/25 11:25:25;;;;;;;3.20;1.30;;;;;;;;;;5055051;28;20045;-75
2022/09/25 11:27:58;;;;;;;4.30;1.55;;;;;;;;;;5061519;28;20096;-74
2022/09/25 11:30:25;;;;;;;6.30;1.50;;;;;;;;;;5039741;28;20034;-74
2022/09/25 11:33:13;;;;;;;3.28;1.17;;;;;;;;;;5026939;28;20035;-75
2022/09/25 11:35:45;;;;;;;1.92;1.73;;;;;;;;;;5032898;28;20095;-75
2022/09/25 11:41:21;;;;;;;2.85;1.20;;;;;;;;;;5015653;28;20090;-75
2022/09/25 11:44:06;;;;;;;6.18;1.60;;;;;;;;;;5017840;28;20046;-75
2022/09/25 11:46:38;;;;;;;4.25;1.98;;;;;;;;;;5034587;28;20045;-75
2022/09/25 11:49:13;;;;;;;2.65;1.30;;;;;;;;;;5033770;28;20064;-76
2022/09/25 11:51:39;;;;;;;2.13;1.27;;;;;;;;;;5046044;28;20097;-74
2022/09/25 11:54:23;;;;;;;2.83;1.42;;;;;;;;;;5048401;28;20053;-75
2022/09/25 11:57:00;;;;;;;1.95;1.20;;;;;;;;;;5034875;28;20038;-75
2022/09/25 11:59:37;;;;;;;4.65;1.70;;;;;;;;;;5015730;28;20042;-74
2022/09/25 12:02:18;;;;;;;3.83;1.50;;;;;;;;;;5024200;28;20053;-75
2022/09/25 12:04:57;;;;;;;4.80;1.63;;;;;;;;;;5028525;28;20063;-75
2022/09/25 12:08:02;;;;;;;4.43;1.40;;;;;;;;;;5033519;28;20076;-75
2022/09/25 12:10:42;;;;;;;2.47;1.20;;;;;;;;;;5054408;28;20090;-76
2022/09/25 12:13:16;;;;;;;3.42;1.35;;;;;;;;;;5056116;28;20043;-75
2022/09/25 12:15:45;;;;;;;5.45;1.25;;;;;;;;;;5054960;28;20057;-75
2022/09/25 12:18:30;;;;;;;4.50;1.70;;;;;;;;;;5055937;28;20049;-75
2022/09/25 12:21:02;;;;;;;5.72;1.70;;;;;;;;;;5055144;28;20098;-74
2022/09/25 12:23:32;;;;;;;3.58;1.30;;;;;;;;;;5055723;28;20060;-75
2022/09/25 12:26:03;;;;;;;2.67;1.50;;;;;;;;;;5072040;28;20033;-75
2022/09/25 12:28:29;;;;;;;3.13;1.60;;;;;;;;;;5054840;28;20057;-75
2022/09/25 12:31:18;;;;;;;3.17;1.60;;;;;;;;;;5055336;28;20030;-74
2022/09/25 12:33:44;;;;;;;5.25;1.60;;;;;;;;;;5043601;28;20041;-75
2022/09/25 12:36:10;;;;;;;5.40;1.60;;;;;;;;;;5054616;28;20049;-75
2022/09/25 12:38:43;;;;;;;3.45;1.55;;;;;;;;;;5053831;28;20048;-75
2022/09/25 12:41:09;;;;;;;3.70;1.13;;;;;;;;;;5057492;28;20061;-75
2022/09/25 12:43:40;;;;;;;4.50;1.80;;;;;;;;;;5033216;28;20056;-75
2022/09/25 12:46:15;;;;;;;4.95;1.90;;;;;;;;;;5033469;28;20040;-75
2022/09/25 12:48:49;;;;;;;3.42;1.30;;;;;;;;;;5031666;28;20069;-74
2022/09/25 12:51:22;;;;;;;7.30;1.60;;;;;;;;;;5032909;28;20102;-75
2022/09/25 12:53:57;;;;;;;3.90;1.67;;;;;;;;;;5032797;28;20512;-74
2022/09/25 12:56:33;;;;;;;4.43;1.90;;;;;;;;;;5032808;28;20102;-76
2022/09/25 12:59:02;;;;;;;3.38;1.60;;;;;;;;;;5047217;28;20475;-76
2022/09/25 13:01:36;;;;;;;3.15;1.20;;;;;;;;;;5028542;28;20112;-75
2022/09/25 13:04:06;;;;;;;2.45;1.40;;;;;;;;;;5024755;28;20053;-74
2022/09/25 13:06:51;;;;;;;3.25;1.70;;;;;;;;;;5028989;28;20046;-74
2022/09/25 13:09:30;;;;;;;2.40;1.30;;;;;;;;;;4981633;28;20044;-75
2022/09/25 13:12:01;;;;;;;3.38;1.40;;;;;;;;;;4980661;28;20054;-75
2022/09/25 13:14:27;;;;;;;4.30;1.50;;;;;;;;;;4987072;28;20031;-76
2022/09/25 13:16:53;;;;;;;2.22;1.20;;;;;;;;;;5034990;28;20095;-75
2022/09/25 13:19:24;;;;;;;3.00;1.38;;;;;;;;;;5044861;28;20051;-75
2022/09/25 13:21:50;;;;;;;2.08;1.20;;;;;;;;;;5001760;28;20035;-75
2022/09/25 13:24:17;;;;;;;3.67;1.50;;;;;;;;;;4976587;29;20103;-75
2022/09/25 13:26:48;;;;;;;2.97;1.23;;;;;;;;;;5058490;28;20043;-76
2022/09/25 13:29:19;;;;;;;3.28;1.33;;;;;;;;;;4995666;28;20047;-75
2022/09/25 13:31:46;;;;;;;4.25;1.88;;;;;;;;;;4993917;28;20058;-75
2022/09/25 13:34:14;;;;;;;3.30;1.17;;;;;;;;;;5002005;28;20106;-75
2022/09/25 13:36:44;;;;;;;2.60;1.00;;;;;;;;;;5015452;28;20052;-75
2022/09/25 13:42:07;;;;;;;6.32;1.40;;;;;;;;;;4995098;28;20030;-75
2022/09/25 13:44:43;;;;;;;2.92;1.27;;;;;;;;;;4994191;28;20039;-75
2022/09/25 13:47:24;;;;;;;3.15;1.30;;;;;;;;;;5061852;28;20043;-75
2022/09/25 13:49:54;;;;;;;3.47;1.20;;;;;;;;;;5018325;28;20096;-75
2022/09/25 13:52:30;;;;;;;1.50;1.10;;;;;;;;;;5055476;28;20117;-76
2022/09/25 13:55:22;;;;;;;3.65;1.42;;;;;;;;;;5008443;28;20038;-75
2022/09/25 13:57:54;;;;;;;1.90;1.13;;;;;;;;;;4979505;28;20023;-76
2022/09/25 14:00:21;;;;;;;3.22;1.23;;;;;;;;;;4983962;28;20094;-76
2022/09/25 14:02:48;;;;;;;3.70;1.98;;;;;;;;;;4984159;28;20027;-76
2022/09/25 14:05:20;;;;;;;4.35;1.40;;;;;;;;;;4970164;28;20528;-74
2022/09/25 14:07:48;;;;;;;3.05;1.25;;;;;;;;;;4982605;28;20051;-74
2022/09/25 14:10:14;;;;;;;3.08;1.23;;;;;;;;;;4974625;28;20070;-74
2022/09/25 14:12:41;;;;;;;2.90;1.40;;;;;;;;;;4974747;28;20051;-74
2022/09/25 14:15:29;;;;;;;3.38;1.40;;;;;;;;;;4974193;28;20019;-74
2022/09/25 14:17:57;;;;;;;4.57;1.80;;;;;;;;;;4974622;28;20043;-74
2022/09/25 14:20:34;;;;;;;3.50;1.40;;;;;;;;;;4974979;28;20043;-74
2022/09/25 14:23:14;;;;;;;3.22;1.30;;;;;;;;;;4976065;28;20035;-74
2022/09/25 14:25:43;;;;;;;4.38;1.40;;;;;;;;;;4975412;28;20073;-75
2022/09/25 14:28:18;;;;;;;2.50;1.48;;;;;;;;;;4976052;28;20090;-74
2022/09/25 14:30:51;;;;;;;4.15;2.10;;;;;;;;;;4987599;28;20043;-74
2022/09/25 14:33:27;;;;;;;2.90;1.00;;;;;;;;;;4995084;28;20083;-74
2022/09/25 14:36:16;;;;;;;7.47;1.75;;;;;;;;;;4993791;28;20087;-74
2022/09/25 14:38:52;;;;;;;2.10;1.55;;;;;;;;;;4991685;28;20069;-74
2022/09/25 14:41:20;;;;;;;3.45;1.58;;;;;;;;;;4994521;28;20043;-74
2022/09/25 14:43:46;;;;;;;2.92;1.30;;;;;;;;;;4993294;28;20049;-74
2022/09/25 14:46:18;;;;;;;3.15;1.27;;;;;;;;;;4993909;28;20031;-74
2022/09/25 14:48:44;;;;;;;4.32;1.75;;;;;;;;;;4993956;28;20030;-74
2022/09/25 14:51:13;;;;;;;2.65;1.92;;;;;;;;;;4985249;28;20082;-75
2022/09/25 14:53:48;;;;;;;4.70;1.50;;;;;;;;;;4978059;28;20055;-77
2022/09/25 14:56:14;;;;;;;3.03;1.50;;;;;;;;;;4958491;28;20498;-75
2022/09/25 14:58:43;;;;;;;3.15;1.50;;;;;;;;;;4956940;28;20042;-76
2022/09/25 15:01:16;;;;;;;3.10;1.55;;;;;;;;;;4959896;28;20046;-75
2022/09/25 15:03:45;;;;;;;3.72;1.50;;;;;;;;;;4958120;28;20043;-75
2022/09/25 15:06:11;;;;;;;2.55;1.30;;;;;;;;;;4954486;28;20055;-75
2022/09/25 15:08:39;;;;;;;6.20;1.52;;;;;;;;;;5038722;28;20049;-74
2022/09/25 15:11:13;;;;;;;3.92;1.50;;;;;;;;;;4963679;28;20122;-75
2022/09/25 15:13:39;;;;;;;2.38;1.40;;;;;;;;;;5045178;28;20040;-75
2022/09/25 15:18:54;;;;;;;3.08;1.58;;;;;;;;;;4969636;28;20082;-75
2022/09/25 15:21:26;;;;;;;2.58;1.50;;;;;;;;;;4982177;28;20140;-75
2022/09/25 15:23:53;;;;;;;4.35;1.45;;;;;;;;;;4994269;28;20106;-76
2022/09/25 15:26:19;;;;;;;2.83;1.48;;;;;;;;;;4967926;28;20047;-74
2022/09/25 15:28:45;;;;;;;2.63;1.20;;;;;;;;;;4974191;28;20043;-75
2022/09/25 15:31:12;;;;;;;3.20;1.40;;;;;;;;;;4973201;28;20047;-75
2022/09/25 15:33:39;;;;;;;5.43;1.45;;;;;;;;;;4973104;28;20051;-75
2022/09/25 15:36:15;;;;;;;3.25;1.65;;;;;;;;;;4974759;28;20049;-75
2022/09/25 15:38:41;;;;;;;2.97;1.38;;;;;;;;;;4974723;28;20042;-75
2022/09/25 15:41:09;;;;;;;3.90;1.20;;;;;;;;;;4956586;28;20521;-76
2022/09/25 15:43:35;;;;;;;2.15;1.15;;;;;;;;;;4968100;28;20047;-76
2022/09/25 15:46:07;;;;;;;2.92;1.48;;;;;;;;;;4974269;28;20043;-75